Time;durP1;ratioP1;P1;durP2;ratioP2;P2;SDS_P1;SDS_P2;PMS_P1;PMS_P2;Temp;Humidity;BMP_temperature;BMP_pressure;BME280_temperature;BME280_humidity;BME280_pressure;Samples;Min_cycle;Max_cycle;Signal;HPM_P1;HPM_P2
2022/05/27 00:01:26;;;;;;;8.77;6.38;;;13.50;99.90;;;;;;4993114;28;20434;-74
2022/05/27 00:03:54;;;;;;;10.20;6.07;;;13.60;99.90;;;;;;4989510;28;20022;-75
2022/05/27 00:06:22;;;;;;;8.77;5.75;;;13.60;99.90;;;;;;4982481;28;20023;-73
2022/05/27 00:08:50;;;;;;;6.45;5.05;;;13.70;99.90;;;;;;4984414;28;20022;-75
2022/05/27 00:11:18;;;;;;;7.43;5.13;;;13.70;99.90;;;;;;4985193;28;20014;-75
2022/05/27 00:13:45;;;;;;;6.13;4.97;;;13.70;99.90;;;;;;4983817;28;20029;-75
2022/05/27 00:16:13;;;;;;;7.18;4.15;;;13.70;99.90;;;;;;4983125;28;20080;-73
2022/05/27 00:18:40;;;;;;;6.97;4.68;;;13.70;99.90;;;;;;4984951;28;20034;-75
2022/05/27 00:21:08;;;;;;;7.10;4.75;;;13.70;99.90;;;;;;4984718;28;20019;-75
2022/05/27 00:23:37;;;;;;;6.10;3.53;;;13.80;99.90;;;;;;4983308;28;20034;-76
2022/05/27 00:26:05;;;;;;;5.38;3.55;;;13.80;99.90;;;;;;4983905;28;20476;-75
2022/05/27 00:28:33;;;;;;;5.75;3.42;;;13.80;99.90;;;;;;4985176;28;20031;-76
2022/05/27 00:31:00;;;;;;;5.32;3.63;;;13.90;99.90;;;;;;4983642;28;20050;-75
2022/05/27 00:33:28;;;;;;;4.55;3.15;;;13.90;99.90;;;;;;4983820;28;20030;-76
2022/05/27 00:35:55;;;;;;;5.50;3.38;;;13.90;99.90;;;;;;4985333;28;20372;-75
2022/05/27 00:38:22;;;;;;;4.30;2.72;;;13.90;99.90;;;;;;4984159;28;20049;-75
2022/05/27 00:40:54;;;;;;;4.90;3.13;;;13.90;99.90;;;;;;4984729;28;20037;-75
2022/05/27 00:43:22;;;;;;;5.35;2.92;;;13.90;99.90;;;;;;4983720;28;20042;-76
2022/05/27 00:46:01;;;;;;;5.28;2.67;;;13.90;99.90;;;;;;4982942;28;20034;-72
2022/05/27 00:48:29;;;;;;;3.53;2.45;;;14.00;99.90;;;;;;4984610;28;20050;-76
2022/05/27 00:50:58;;;;;;;4.80;3.22;;;14.00;99.90;;;;;;4982572;28;20535;-74
2022/05/27 00:53:35;;;;;;;7.55;2.45;;;14.00;99.90;;;;;;4983811;28;20073;-75
2022/05/27 00:56:05;;;;;;;5.00;2.40;;;14.10;99.90;;;;;;4983331;28;20073;-76
2022/05/27 00:58:38;;;;;;;3.75;2.30;;;14.10;99.90;;;;;;4981167;28;20035;-75
2022/05/27 01:01:06;;;;;;;3.15;2.20;;;14.10;99.90;;;;;;4983628;28;20038;-75
2022/05/27 01:03:34;;;;;;;7.40;2.60;;;14.20;99.90;;;;;;4984744;28;20049;-75
2022/05/27 01:06:02;;;;;;;3.38;2.08;;;14.20;99.90;;;;;;4982114;28;20029;-76
2022/05/27 01:08:30;;;;;;;3.20;1.92;;;14.20;99.90;;;;;;4983109;28;20689;-75
2022/05/27 01:11:21;;;;;;;5.28;2.35;;;14.30;99.90;;;;;;4982798;28;20386;-75
2022/05/27 01:14:02;;;;;;;7.05;2.22;;;14.20;99.90;;;;;;4984208;28;20027;-76
2022/05/27 01:16:33;;;;;;;3.90;2.45;;;14.30;99.90;;;;;;4984330;28;20031;-76
2022/05/27 01:22:28;;;;;;;4.50;1.73;;;14.50;99.90;;;;;;4994380;28;20126;-77
2022/05/27 01:25:19;;;;;;;2.67;1.90;;;14.50;99.90;;;;;;4997956;28;20031;-79
2022/05/27 01:28:12;;;;;;;2.83;2.08;;;14.60;99.90;;;;;;4997573;28;20360;-78
2022/05/27 01:30:56;;;;;;;4.38;2.13;;;14.70;99.90;;;;;;4997858;28;20048;-77
2022/05/27 01:33:43;;;;;;;5.47;2.60;;;14.70;99.90;;;;;;4997957;28;20105;-78
2022/05/27 01:36:10;;;;;;;4.07;2.03;;;14.70;99.90;;;;;;4993805;28;20037;-77
2022/05/27 01:39:01;;;;;;;3.92;2.35;;;14.70;99.90;;;;;;4997759;28;20026;-77
2022/05/27 01:41:48;;;;;;;5.88;1.98;;;14.80;99.90;;;;;;4997296;28;20033;-77
2022/05/27 01:45:00;;;;;;;4.65;1.98;;;14.90;99.90;;;;;;4977849;28;20049;-79
2022/05/27 01:47:40;;;;;;;4.85;2.47;;;14.90;99.90;;;;;;4962674;28;20180;-79
2022/05/27 01:50:26;;;;;;;2.33;1.50;;;15.00;99.90;;;;;;4977878;28;20097;-77
2022/05/27 01:53:19;;;;;;;4.68;2.05;;;15.00;99.90;;;;;;4977894;28;20507;-77
2022/05/27 01:56:13;;;;;;;3.33;1.63;;;15.10;99.90;;;;;;4981280;28;20059;-79
2022/05/27 01:59:00;;;;;;;2.97;1.73;;;15.10;99.90;;;;;;4986028;28;20046;-77
2022/05/27 02:01:38;;;;;;;2.42;1.50;;;15.10;99.90;;;;;;4986858;28;20011;-78
2022/05/27 02:04:19;;;;;;;5.88;1.42;;;15.20;99.90;;;;;;4987119;28;20095;-79
2022/05/27 02:07:00;;;;;;;2.30;1.50;;;15.30;99.90;;;;;;4996971;28;20077;-79
2022/05/27 02:09:40;;;;;;;2.70;1.30;;;15.40;99.90;;;;;;4989224;28;20041;-78
2022/05/27 02:12:20;;;;;;;3.63;1.10;;;15.40;99.90;;;;;;4985562;28;20019;-76
2022/05/27 02:14:56;;;;;;;1.63;1.13;;;15.50;99.90;;;;;;4988366;28;20125;-77
2022/05/27 02:17:30;;;;;;;3.55;1.17;;;15.50;99.90;;;;;;4986403;28;20093;-76
2022/05/27 02:20:06;;;;;;;1.77;0.98;;;15.50;99.90;;;;;;4988534;28;20102;-76
2022/05/27 02:22:48;;;;;;;2.30;1.10;;;15.50;99.90;;;;;;4987785;28;20382;-76
2022/05/27 02:25:30;;;;;;;5.20;1.38;;;15.40;99.90;;;;;;4984956;28;20114;-76
2022/05/27 02:28:10;;;;;;;6.07;0.68;;;15.50;99.90;;;;;;4984793;28;20112;-75
2022/05/27 02:30:40;;;;;;;1.88;0.85;;;15.60;99.90;;;;;;4984929;28;20029;-75
2022/05/27 02:36:06;;;;;;;1.17;0.93;;;15.70;99.90;;;;;;4985690;28;20026;-77
2022/05/27 02:38:34;;;;;;;1.75;0.77;;;15.80;99.90;;;;;;4985270;28;20030;-76
2022/05/27 02:41:16;;;;;;;2.58;0.93;;;15.80;99.90;;;;;;5000409;28;20157;-76
2022/05/27 02:44:20;;;;;;;1.00;0.50;;;15.90;99.90;;;;;;4996497;28;20037;-76
2022/05/27 02:47:12;;;;;;;3.67;1.00;;;16.00;99.90;;;;;;4996426;28;20026;-76
2022/05/27 02:49:49;;;;;;;0.93;0.60;;;16.10;99.90;;;;;;4993641;28;20034;-76
2022/05/27 02:52:22;;;;;;;0.80;0.68;;;16.10;99.90;;;;;;4977052;28;20437;-76
2022/05/27 02:55:29;;;;;;;2.08;0.65;;;16.10;99.90;;;;;;4976976;28;20509;-76
2022/05/27 02:58:02;;;;;;;2.28;0.75;;;16.20;99.90;;;;;;4976433;28;20031;-76
2022/05/27 03:00:32;;;;;;;1.35;0.43;;;16.30;99.90;;;;;;4976798;28;20075;-76
2022/05/27 03:03:01;;;;;;;1.58;0.50;;;16.30;99.90;;;;;;4976759;28;20080;-76
2022/05/27 03:05:45;;;;;;;1.08;0.60;;;16.30;99.90;;;;;;4975335;28;20033;-76
2022/05/27 03:08:22;;;;;;;1.13;0.43;;;16.30;99.90;;;;;;4976293;28;20061;-76
2022/05/27 03:10:56;;;;;;;0.30;0.30;;;16.30;99.90;;;;;;4976576;28;20066;-78
2022/05/27 03:13:34;;;;;;;1.90;0.50;;;16.30;99.90;;;;;;4976368;28;20027;-76
2022/05/27 03:16:35;;;;;;;1.25;0.47;;;16.40;99.90;;;;;;4975240;28;20027;-77
2022/05/27 03:19:23;;;;;;;0.30;0.30;;;16.40;99.90;;;;;;4976063;28;20081;-77
2022/05/27 03:22:20;;;;;;;3.08;0.60;;;16.40;99.90;;;;;;4976083;28;20031;-78
2022/05/27 03:25:04;;;;;;;;;;;16.40;99.90;;;;;;4991655;28;20050;-77
2022/05/27 03:27:38;;;;;;;0.70;0.60;;;16.50;99.90;;;;;;4996256;28;19996;-78
2022/05/27 03:30:15;;;;;;;1.13;0.52;;;16.50;99.90;;;;;;4996004;28;20506;-76
2022/05/27 03:33:21;;;;;;;1.67;0.45;;;16.50;99.90;;;;;;4995844;28;20026;-76
2022/05/27 03:36:03;;;;;;;3.20;0.50;;;16.50;99.90;;;;;;4996063;28;20026;-75
2022/05/27 03:38:43;;;;;;;1.15;0.50;;;16.60;99.90;;;;;;4995832;28;20033;-77
2022/05/27 03:41:33;;;;;;;0.75;0.32;;;16.70;99.90;;;;;;4995575;28;20425;-77
2022/05/27 03:44:01;;;;;;;2.42;0.40;;;16.70;99.90;;;;;;4995905;28;20532;-76
2022/05/27 03:46:31;;;;;;;0.70;0.40;;;16.70;99.90;;;;;;4994849;28;20022;-78
2022/05/27 03:48:59;;;;;;;0.95;0.40;;;16.70;99.90;;;;;;4994460;28;20381;-78
2022/05/27 03:51:51;;;;;;;1.30;0.40;;;16.70;99.90;;;;;;4994962;28;20057;-76
2022/05/27 03:54:18;;;;;;;1.48;0.35;;;16.80;99.90;;;;;;4988209;28;20030;-80
2022/05/27 03:56:49;;;;;;;0.73;0.60;;;16.80;99.90;;;;;;4995431;28;20113;-81
2022/05/27 03:59:18;;;;;;;1.77;0.65;;;16.80;99.90;;;;;;4995310;28;20391;-77
2022/05/27 04:01:50;;;;;;;3.72;0.45;;;16.80;99.90;;;;;;4995417;28;20038;-77
2022/05/27 04:04:20;;;;;;;0.77;0.40;;;16.80;99.90;;;;;;4995207;28;20345;-78
2022/05/27 04:06:47;;;;;;;2.20;0.52;;;16.80;99.90;;;;;;4994953;28;20026;-77
2022/05/27 04:09:17;;;;;;;0.30;0.30;;;16.80;99.90;;;;;;4994775;28;20030;-79
2022/05/27 04:11:44;;;;;;;1.42;0.60;;;16.80;99.90;;;;;;4995070;28;20383;-78
2022/05/27 04:14:12;;;;;;;0.77;0.65;;;16.80;99.90;;;;;;4995103;28;20352;-78
2022/05/27 04:16:40;;;;;;;0.90;0.43;;;16.80;99.90;;;;;;4994860;28;20034;-77
2022/05/27 04:19:08;;;;;;;1.50;0.50;;;16.80;99.90;;;;;;4993926;28;20030;-79
2022/05/27 04:21:37;;;;;;;0.82;0.40;;;16.80;99.90;;;;;;4982349;28;20415;-79
2022/05/27 04:24:05;;;;;;;1.15;0.30;;;16.80;99.90;;;;;;4994641;28;20440;-80
2022/05/27 04:26:33;;;;;;;0.80;0.50;;;16.80;99.90;;;;;;4994702;28;20026;-79
2022/05/27 04:29:00;;;;;;;0.90;0.45;;;16.80;99.90;;;;;;4994894;28;20057;-81
2022/05/27 04:31:28;;;;;;;0.70;0.43;;;16.80;99.90;;;;;;4994129;28;20463;-79
2022/05/27 04:33:55;;;;;;;0.45;0.40;;;16.90;99.90;;;;;;4994542;28;20038;-80
2022/05/27 04:36:23;;;;;;;1.08;0.50;;;16.90;99.90;;;;;;4994524;28;20034;-80
2022/05/27 04:38:50;;;;;;;1.40;0.57;;;16.90;99.90;;;;;;4994551;28;20034;-80
2022/05/27 04:41:18;;;;;;;1.45;0.55;;;16.90;99.90;;;;;;4994420;28;20027;-78
2022/05/27 04:43:45;;;;;;;0.55;0.40;;;16.80;99.90;;;;;;4994312;28;20033;-78
2022/05/27 04:46:12;;;;;;;1.38;0.82;;;16.90;99.90;;;;;;4994331;28;20026;-78
2022/05/27 04:48:39;;;;;;;0.40;0.35;;;16.90;99.90;;;;;;4994479;28;20062;-78
2022/05/27 04:51:07;;;;;;;3.03;0.50;;;16.90;99.90;;;;;;4993931;28;20104;-78
2022/05/27 04:53:35;;;;;;;2.15;0.47;;;16.90;99.90;;;;;;4994387;28;20539;-78
2022/05/27 04:56:02;;;;;;;1.60;0.40;;;16.90;99.90;;;;;;4989750;28;20066;-76
2022/05/27 04:58:30;;;;;;;0.90;0.47;;;16.90;99.90;;;;;;4991822;28;20027;-78
2022/05/27 05:00:58;;;;;;;1.35;0.68;;;17.00;99.90;;;;;;4993734;28;20030;-78
2022/05/27 05:03:26;;;;;;;1.25;0.60;;;16.90;99.90;;;;;;4994150;28;20025;-80
2022/05/27 05:05:53;;;;;;;1.98;0.60;;;16.90;99.90;;;;;;4982818;28;20030;-79
2022/05/27 05:08:33;;;;;;;0.88;0.35;;;16.90;99.90;;;;;;4982822;28;20019;-83
2022/05/27 05:11:05;;;;;;;2.03;0.60;;;17.00;99.90;;;;;;4979132;28;20027;-81
2022/05/27 05:13:34;;;;;;;2.25;0.68;;;17.00;99.90;;;;;;4981821;28;20080;-79
2022/05/27 05:16:03;;;;;;;5.07;0.77;;;17.00;99.90;;;;;;4984573;28;20026;-79
2022/05/27 05:18:30;;;;;;;1.95;0.60;;;17.00;99.90;;;;;;4983173;28;20038;-80
2022/05/27 05:20:59;;;;;;;1.30;0.40;;;17.00;99.90;;;;;;4982687;28;20018;-78
2022/05/27 05:23:26;;;;;;;2.45;0.80;;;17.00;99.90;;;;;;4981806;28;20030;-80
2022/05/27 05:25:53;;;;;;;3.85;0.75;;;17.10;99.90;;;;;;4974327;28;20042;-80
2022/05/27 05:28:21;;;;;;;1.63;0.77;;;17.10;99.90;;;;;;4973306;28;20030;-81
2022/05/27 05:30:48;;;;;;;1.20;0.73;;;17.00;99.90;;;;;;4974217;28;20038;-79
2022/05/27 05:33:15;;;;;;;2.63;0.80;;;17.00;99.90;;;;;;4974378;28;20082;-80
2022/05/27 05:35:46;;;;;;;1.23;0.60;;;17.00;99.90;;;;;;4974121;28;20081;-80
2022/05/27 05:38:14;;;;;;;1.48;0.70;;;17.00;99.90;;;;;;4974198;28;20464;-80
2022/05/27 05:40:41;;;;;;;1.23;0.30;;;17.00;99.90;;;;;;4974448;28;20046;-81
2022/05/27 05:43:09;;;;;;;2.15;0.50;;;16.90;99.90;;;;;;4974423;28;20085;-81
2022/05/27 05:45:36;;;;;;;2.20;0.63;;;16.80;99.90;;;;;;4974231;28;20035;-80
2022/05/27 05:48:04;;;;;;;1.17;0.50;;;16.80;99.90;;;;;;4974243;28;20126;-78
2022/05/27 05:50:32;;;;;;;0.65;0.43;;;16.80;99.90;;;;;;4972642;28;20054;-79
2022/05/27 05:53:01;;;;;;;5.15;0.55;;;16.80;99.90;;;;;;4973844;28;20037;-77
2022/05/27 05:55:28;;;;;;;1.05;0.60;;;16.80;99.90;;;;;;4974251;28;20168;-78
2022/05/27 05:57:55;;;;;;;1.70;0.50;;;16.70;99.90;;;;;;4974207;28;20019;-77
2022/05/27 06:00:26;;;;;;;3.95;0.60;;;16.70;99.90;;;;;;4974207;28;20035;-79
2022/05/27 06:02:54;;;;;;;1.23;0.55;;;16.60;99.90;;;;;;4973981;28;20033;-79
2022/05/27 06:05:23;;;;;;;2.28;0.60;;;16.60;99.90;;;;;;4989195;28;20093;-78
2022/05/27 06:07:52;;;;;;;3.72;1.02;;;16.60;99.90;;;;;;4994072;28;20031;-80
2022/05/27 06:10:20;;;;;;;2.45;0.93;;;16.60;99.90;;;;;;4996598;28;20026;-77
2022/05/27 06:12:48;;;;;;;1.58;0.75;;;16.60;99.90;;;;;;4997169;28;20033;-77
2022/05/27 06:15:16;;;;;;;1.00;0.55;;;16.50;99.90;;;;;;4997384;28;20105;-77
2022/05/27 06:17:43;;;;;;;2.78;0.68;;;16.50;99.90;;;;;;4997163;28;20383;-76
2022/05/27 06:20:11;;;;;;;1.92;0.45;;;16.50;99.90;;;;;;4997080;28;20038;-75
2022/05/27 06:22:39;;;;;;;1.65;0.90;;;16.50;99.90;;;;;;4996801;28;20026;-76
2022/05/27 06:25:07;;;;;;;6.03;0.85;;;16.50;99.90;;;;;;4992944;28;20141;-76
2022/05/27 06:27:34;;;;;;;4.40;0.82;;;16.40;99.90;;;;;;4995618;28;20045;-78
2022/05/27 06:35:32;;;;;;;2.10;0.65;;;16.40;99.90;;;;;;4987401;28;20033;-77
2022/05/27 06:38:00;;;;;;;1.95;0.60;;;16.30;99.90;;;;;;4985740;28;20023;-77
2022/05/27 06:40:27;;;;;;;1.67;0.70;;;16.30;99.90;;;;;;4985854;28;20023;-78
2022/05/27 06:42:54;;;;;;;6.35;1.10;;;16.30;99.90;;;;;;4992856;28;20018;-77
2022/05/27 06:45:22;;;;;;;2.22;0.80;;;16.30;99.90;;;;;;4995258;28;20026;-77
2022/05/27 06:47:49;;;;;;;4.43;1.38;;;16.20;99.90;;;;;;4995564;28;20022;-78
2022/05/27 06:50:17;;;;;;;1.42;0.73;;;16.20;99.90;;;;;;4993007;28;20076;-81
2022/05/27 06:52:44;;;;;;;7.28;1.40;;;16.10;99.90;;;;;;4995734;28;20033;-82
2022/05/27 06:55:14;;;;;;;2.85;1.05;;;16.10;99.90;;;;;;4996578;28;20014;-77
2022/05/27 06:57:42;;;;;;;2.13;1.27;;;16.10;99.90;;;;;;4996302;28;20387;-77
2022/05/27 07:00:11;;;;;;;6.03;1.42;;;16.10;99.90;;;;;;4996178;28;20085;-76
2022/05/27 07:02:38;;;;;;;4.35;0.98;;;16.00;99.90;;;;;;4996127;28;20105;-78
2022/05/27 07:05:06;;;;;;;2.60;1.10;;;16.00;99.90;;;;;;4996076;28;20033;-77
2022/05/27 07:07:34;;;;;;;2.42;1.20;;;16.00;99.90;;;;;;4996041;28;20438;-77
2022/05/27 07:10:01;;;;;;;2.78;0.98;;;15.90;99.90;;;;;;4995778;28;20027;-78
2022/05/27 07:12:29;;;;;;;4.20;1.20;;;15.90;99.90;;;;;;4995407;28;20026;-79
2022/05/27 07:14:56;;;;;;;3.13;0.93;;;15.80;99.90;;;;;;4994164;28;20464;-77
2022/05/27 07:17:23;;;;;;;4.25;0.95;;;15.80;99.90;;;;;;4994927;28;20018;-77
2022/05/27 07:19:51;;;;;;;2.35;1.20;;;15.80;99.90;;;;;;4994383;28;20118;-77
2022/05/27 07:22:18;;;;;;;2.38;0.60;;;15.80;99.90;;;;;;4987772;28;20495;-77
2022/05/27 07:24:45;;;;;;;2.85;1.15;;;15.80;99.90;;;;;;4985481;28;20498;-77
2022/05/27 07:27:13;;;;;;;3.33;1.33;;;15.90;99.90;;;;;;4985308;28;20102;-77
2022/05/27 07:29:40;;;;;;;6.20;0.95;;;15.90;99.90;;;;;;4984418;28;20026;-76
2022/05/27 07:32:07;;;;;;;2.72;0.90;;;15.90;99.90;;;;;;4975996;28;20027;-80
2022/05/27 07:34:35;;;;;;;3.10;1.20;;;15.90;99.90;;;;;;4975842;28;20110;-77
2022/05/27 07:37:02;;;;;;;5.00;0.98;;;15.90;99.90;;;;;;4974572;28;20058;-77
2022/05/27 07:39:30;;;;;;;4.82;0.80;;;15.70;99.90;;;;;;4976068;28;20043;-77
2022/05/27 07:41:57;;;;;;;9.63;0.88;;;15.70;99.90;;;;;;4976041;28;20064;-77
2022/05/27 07:44:24;;;;;;;8.23;0.90;;;15.60;99.90;;;;;;4974331;28;20480;-77
2022/05/27 07:46:53;;;;;;;1.48;0.70;;;15.50;99.90;;;;;;4974383;28;20365;-77
2022/05/27 07:49:21;;;;;;;2.47;0.77;;;15.50;99.90;;;;;;4970591;28;20085;-77
2022/05/27 07:51:49;;;;;;;1.85;0.60;;;15.40;99.90;;;;;;4971812;28;20039;-77
2022/05/27 07:54:16;;;;;;;2.00;0.95;;;15.30;99.90;;;;;;4971781;28;20035;-77
2022/05/27 07:56:44;;;;;;;3.65;1.00;;;15.30;99.90;;;;;;4971928;28;20464;-77
2022/05/27 07:59:11;;;;;;;3.42;1.38;;;15.30;99.90;;;;;;4971874;28;20030;-77
2022/05/27 08:01:40;;;;;;;3.60;0.82;;;15.20;99.90;;;;;;4991691;28;20428;-76
2022/05/27 08:04:08;;;;;;;2.15;1.15;;;15.20;99.90;;;;;;4994605;28;20031;-77
2022/05/27 08:06:36;;;;;;;4.18;1.08;;;15.20;99.90;;;;;;4994954;28;20045;-76
2022/05/27 08:09:03;;;;;;;5.53;1.55;;;15.10;99.90;;;;;;4995311;28;20057;-77
2022/05/27 08:11:30;;;;;;;4.13;1.33;;;15.10;99.90;;;;;;4994997;28;20022;-77
2022/05/27 08:14:00;;;;;;;1.67;0.80;;;15.00;99.90;;;;;;4995313;28;20026;-77
2022/05/27 08:16:28;;;;;;;2.80;0.90;;;15.00;99.90;;;;;;4994897;28;20443;-77
2022/05/27 08:18:55;;;;;;;4.57;0.88;;;15.00;99.90;;;;;;4995022;28;20025;-77
2022/05/27 08:21:25;;;;;;;6.40;1.10;;;14.90;99.90;;;;;;4994904;28;20057;-77
2022/05/27 08:23:52;;;;;;;3.63;0.98;;;14.90;99.90;;;;;;4994793;28;20552;-77
2022/05/27 08:26:20;;;;;;;6.07;1.17;;;14.90;99.90;;;;;;4994833;28;20490;-77
2022/05/27 08:28:47;;;;;;;3.50;1.00;;;14.80;99.90;;;;;;4994661;28;20046;-77
2022/05/27 08:31:16;;;;;;;5.45;1.10;;;14.70;99.90;;;;;;4994220;28;20427;-77
2022/05/27 08:39:16;;;;;;;2.90;0.90;;;14.70;99.90;;;;;;4994708;28;20096;-77
2022/05/27 08:42:03;;;;;;;3.70;1.02;;;14.60;99.90;;;;;;4994551;28;20018;-77
2022/05/27 08:44:39;;;;;;;5.57;1.20;;;14.60;99.90;;;;;;4993257;28;20411;-77
2022/05/27 08:47:24;;;;;;;3.13;0.95;;;14.60;99.90;;;;;;4993032;28;20025;-76
2022/05/27 08:50:23;;;;;;;7.63;1.55;;;14.50;99.90;;;;;;4990936;28;20046;-77
2022/05/27 08:52:59;;;;;;;2.15;1.00;;;14.50;99.90;;;;;;4987515;28;20643;-77
2022/05/27 09:01:20;;;;;;;5.22;2.92;;;14.40;99.90;;;;;;4982329;28;20442;-77
2022/05/27 09:03:59;;;;;;;6.03;1.98;;;14.40;99.90;;;;;;4993380;28;20046;-77
2022/05/27 09:06:52;;;;;;;6.28;2.42;;;14.40;99.90;;;;;;4993371;28;20025;-76
2022/05/27 09:09:23;;;;;;;3.67;2.13;;;14.40;99.90;;;;;;4992979;28;20026;-77
2022/05/27 09:12:08;;;;;;;4.53;2.20;;;14.30;99.90;;;;;;4993160;28;20431;-76
2022/05/27 09:14:39;;;;;;;4.73;2.13;;;14.30;99.90;;;;;;4992457;28;20110;-77
2022/05/27 09:17:10;;;;;;;5.55;1.63;;;14.30;99.90;;;;;;4993227;28;20021;-76
2022/05/27 09:19:49;;;;;;;3.70;1.60;;;14.20;99.90;;;;;;4992930;28;20632;-76
2022/05/27 09:22:25;;;;;;;5.55;1.80;;;14.20;99.90;;;;;;4981691;28;20395;-77
2022/05/27 09:25:19;;;;;;;5.85;1.50;;;14.20;99.90;;;;;;4973252;28;20027;-76
2022/05/27 09:28:05;;;;;;;3.55;1.80;;;14.20;99.90;;;;;;4973305;28;20030;-76
2022/05/27 09:30:35;;;;;;;3.65;1.77;;;14.10;99.90;;;;;;4981305;28;20023;-76
2022/05/27 09:33:23;;;;;;;3.55;1.55;;;14.10;99.90;;;;;;4981601;28;20384;-76
2022/05/27 09:35:51;;;;;;;5.60;1.50;;;14.10;99.90;;;;;;4980366;28;20384;-77
2022/05/27 09:38:31;;;;;;;7.35;1.50;;;14.10;99.90;;;;;;4981495;28;20030;-76
2022/05/27 09:41:05;;;;;;;2.20;1.40;;;14.10;99.90;;;;;;4982233;28;20039;-76
2022/05/27 09:43:43;;;;;;;2.58;1.33;;;14.10;99.90;;;;;;4981967;28;20506;-76
2022/05/27 09:46:18;;;;;;;3.72;1.50;;;14.10;99.90;;;;;;4985211;28;20027;-77
2022/05/27 09:48:46;;;;;;;3.83;1.38;;;14.10;99.90;;;;;;4984836;28;20375;-76
2022/05/27 09:51:15;;;;;;;3.05;1.50;;;14.10;99.90;;;;;;4996491;28;20519;-77
2022/05/27 09:53:49;;;;;;;5.75;1.55;;;14.10;99.90;;;;;;4978142;28;20546;-77
2022/05/27 09:56:32;;;;;;;5.05;1.50;;;14.10;99.90;;;;;;4976902;28;20029;-77
2022/05/27 09:59:22;;;;;;;4.10;1.33;;;14.10;99.90;;;;;;4977239;28;20022;-77
2022/05/27 10:01:50;;;;;;;4.30;1.92;;;14.10;99.90;;;;;;4977169;28;20049;-76
2022/05/27 10:04:19;;;;;;;4.03;2.03;;;14.10;99.90;;;;;;4976453;28;20495;-77
2022/05/27 10:06:47;;;;;;;5.30;1.95;;;14.10;99.90;;;;;;4981931;28;20018;-77
2022/05/27 10:09:33;;;;;;;3.25;1.48;;;14.10;99.90;;;;;;4981910;28;20379;-76
2022/05/27 10:12:00;;;;;;;8.87;1.90;;;14.00;99.90;;;;;;4982281;28;20031;-77
2022/05/27 10:14:32;;;;;;;5.55;2.13;;;14.00;99.90;;;;;;4981766;28;20025;-76
2022/05/27 10:17:28;;;;;;;3.72;2.08;;;14.00;99.90;;;;;;4992816;28;20088;-75
2022/05/27 10:20:17;;;;;;;6.30;1.83;;;13.90;99.90;;;;;;4992524;28;20125;-76
2022/05/27 10:23:02;;;;;;;6.80;1.90;;;13.90;99.90;;;;;;4993849;28;20404;-76
2022/05/27 10:25:39;;;;;;;3.17;1.52;;;13.90;99.90;;;;;;4983978;28;20031;-76
2022/05/27 10:28:08;;;;;;;6.70;2.40;;;13.90;99.90;;;;;;4986261;28;20023;-76
2022/05/27 10:30:41;;;;;;;4.95;1.95;;;13.80;99.90;;;;;;4983416;28;20045;-76
2022/05/27 10:33:22;;;;;;;5.93;1.98;;;13.80;99.90;;;;;;4984621;28;20015;-76
2022/05/27 10:35:52;;;;;;;6.75;1.60;;;13.80;99.90;;;;;;4984702;28;20054;-76
2022/05/27 10:38:35;;;;;;;4.38;1.90;;;13.80;99.90;;;;;;4982546;28;20026;-76
2022/05/27 10:41:20;;;;;;;6.57;2.15;;;13.80;99.90;;;;;;4985420;28;20030;-77
2022/05/27 10:44:22;;;;;;;7.50;2.90;;;13.70;99.90;;;;;;4984467;28;20094;-77
2022/05/27 10:46:54;;;;;;;8.88;2.80;;;13.70;99.90;;;;;;4986107;28;20475;-77
2022/05/27 10:49:50;;;;;;;5.20;2.30;;;13.70;99.90;;;;;;4983935;28;20022;-77
2022/05/27 10:52:23;;;;;;;;;;;13.70;99.90;;;;;;4985072;28;20105;-76
2022/05/27 10:55:02;;;;;;;7.22;2.47;;;13.70;99.90;;;;;;4985290;28;19996;-77
2022/05/27 11:04:54;;;;;;;4.13;1.83;;;13.70;99.90;;;;;;4955798;28;20389;-76
2022/05/27 11:07:38;;;;;;;5.43;2.28;;;13.70;99.90;;;;;;4983588;28;20024;-76
2022/05/27 11:10:41;;;;;;;5.45;1.85;;;13.60;99.90;;;;;;4984625;28;20031;-76
2022/05/27 11:16:38;;;;;;;6.32;2.53;;;13.60;99.90;;;;;;4982475;28;20034;-75
2022/05/27 11:19:09;;;;;;;6.53;1.90;;;13.60;99.90;;;;;;4980651;28;20440;-76
2022/05/27 11:22:20;;;;;;;4.90;1.88;;;13.60;99.90;;;;;;4982583;28;20106;-75
2022/05/27 11:25:09;;;;;;;4.90;2.03;;;13.60;99.90;;;;;;4970348;28;20031;-76
2022/05/27 11:27:45;;;;;;;3.58;1.70;;;13.60;99.90;;;;;;4982562;28;20165;-76
2022/05/27 11:30:33;;;;;;;7.07;2.47;;;13.60;99.90;;;;;;4983320;28;20015;-77
2022/05/27 11:33:28;;;;;;;7.30;2.40;;;13.60;99.90;;;;;;4981975;28;20018;-76
2022/05/27 11:36:09;;;;;;;5.38;1.92;;;13.60;99.90;;;;;;4983729;28;20032;-76
2022/05/27 11:38:45;;;;;;;4.95;2.70;;;13.60;99.90;;;;;;4982474;28;20019;-76
2022/05/27 11:41:35;;;;;;;7.53;2.42;;;13.60;99.90;;;;;;4983440;28;20037;-76
2022/05/27 11:44:16;;;;;;;9.02;2.42;;;13.60;99.90;;;;;;4981197;28;20085;-76
2022/05/27 11:46:48;;;;;;;3.08;1.90;;;13.60;99.90;;;;;;4974475;28;20761;-77
2022/05/27 11:49:30;;;;;;;7.55;2.70;;;13.60;99.90;;;;;;4973945;28;20460;-76
2022/05/27 11:52:33;;;;;;;6.70;2.05;;;13.60;99.90;;;;;;4946502;29;20058;-76
2022/05/27 11:55:09;;;;;;;6.47;2.28;;;13.50;99.90;;;;;;4923609;28;20027;-77
2022/05/27 11:58:33;;;;;;;4.32;2.05;;;13.60;99.90;;;;;;4945378;29;20028;-77
2022/05/27 12:01:27;;;;;;;6.63;2.15;;;13.60;99.90;;;;;;4905842;29;20028;-78
2022/05/27 12:04:28;;;;;;;6.18;2.22;;;13.60;99.90;;;;;;4906391;29;20525;-77
2022/05/27 12:07:33;;;;;;;4.63;2.08;;;13.50;99.90;;;;;;4941621;28;20086;-77
2022/05/27 12:10:20;;;;;;;8.00;2.65;;;13.50;99.90;;;;;;4944570;29;20422;-77
2022/05/27 12:12:53;;;;;;;5.18;2.35;;;13.50;99.90;;;;;;4947088;29;20381;-77
2022/05/27 12:15:42;;;;;;;6.95;2.40;;;13.50;99.90;;;;;;4946170;29;20028;-77
2022/05/27 12:18:13;;;;;;;4.15;2.30;;;13.40;99.90;;;;;;4946771;29;20224;-77
2022/05/27 12:20:41;;;;;;;3.42;2.33;;;13.40;99.90;;;;;;4946407;29;20046;-77
2022/05/27 12:23:12;;;;;;;6.13;2.40;;;13.30;99.90;;;;;;4944759;28;20019;-77
2022/05/27 12:25:53;;;;;;;3.38;2.15;;;13.20;99.90;;;;;;4945531;28;20046;-77
2022/05/27 12:28:31;;;;;;;3.95;2.13;;;13.30;99.90;;;;;;4954834;28;20019;-77
2022/05/27 12:31:02;;;;;;;3.60;2.03;;;13.20;99.90;;;;;;4954917;28;20074;-74
2022/05/27 12:33:34;;;;;;;10.43;2.55;;;13.20;99.90;;;;;;4955088;28;20035;-76
2022/05/27 12:36:23;;;;;;;5.22;2.22;;;13.30;99.90;;;;;;4944925;28;20535;-75
2022/05/27 12:38:53;;;;;;;5.40;1.80;;;13.20;99.90;;;;;;4944873;29;20425;-77
2022/05/27 12:41:38;;;;;;;5.13;2.03;;;13.20;99.90;;;;;;4945265;28;20035;-75
2022/05/27 12:44:28;;;;;;;3.13;2.13;;;13.20;99.90;;;;;;4946474;29;20033;-76
2022/05/27 12:47:01;;;;;;;4.88;2.90;;;13.20;99.90;;;;;;4945050;29;20445;-76
2022/05/27 12:49:39;;;;;;;9.38;2.67;;;13.20;99.90;;;;;;4945761;28;20031;-76
2022/05/27 12:52:29;;;;;;;3.92;1.95;;;13.20;99.90;;;;;;4982835;28;20031;-75
2022/05/27 12:54:56;;;;;;;4.05;2.42;;;13.10;99.90;;;;;;4983639;28;20021;-76
2022/05/27 13:03:37;;;;;;;4.55;2.22;;;13.10;99.90;;;;;;4994193;28;20053;-76
2022/05/27 13:06:18;;;;;;;7.03;2.42;;;13.10;99.90;;;;;;4992882;28;20121;-75
2022/05/27 13:08:51;;;;;;;5.85;2.42;;;13.10;99.90;;;;;;4992727;28;20033;-76
2022/05/27 13:11:26;;;;;;;7.25;1.65;;;13.10;99.90;;;;;;4994246;28;20032;-76
2022/05/27 13:14:08;;;;;;;2.97;2.13;;;13.00;99.90;;;;;;4994198;28;20034;-76
2022/05/27 13:16:41;;;;;;;7.93;1.98;;;13.00;99.90;;;;;;4994020;28;20037;-76
2022/05/27 13:19:36;;;;;;;2.72;1.95;;;13.00;99.90;;;;;;4993013;28;20033;-76
2022/05/27 13:22:12;;;;;;;6.30;2.08;;;13.00;99.90;;;;;;4994045;28;20022;-76
2022/05/27 13:24:40;;;;;;;;;;;13.00;99.90;;;;;;4994646;28;20077;-76
2022/05/27 13:27:27;;;;;;;4.43;2.15;;;13.00;99.90;;;;;;4993922;28;19960;-76
2022/05/27 13:29:57;;;;;;;5.20;1.60;;;13.00;99.90;;;;;;4993851;28;20036;-77
2022/05/27 13:32:30;;;;;;;2.35;1.42;;;13.00;99.90;;;;;;4993901;28;20110;-77
2022/05/27 13:35:14;;;;;;;7.20;1.85;;;13.00;99.90;;;;;;4994122;28;20081;-77
2022/05/27 13:37:47;;;;;;;4.50;1.85;;;13.00;99.90;;;;;;4993984;28;20030;-77
2022/05/27 13:40:35;;;;;;;3.35;1.48;;;13.00;99.90;;;;;;4993788;28;20030;-76
2022/05/27 13:43:17;;;;;;;6.72;1.88;;;13.00;99.90;;;;;;4993793;28;20022;-76
2022/05/27 13:45:44;;;;;;;3.72;1.90;;;13.00;99.90;;;;;;4993850;28;20018;-76
2022/05/27 13:48:28;;;;;;;5.40;2.10;;;13.00;99.90;;;;;;4993995;28;20483;-77
2022/05/27 13:51:26;;;;;;;4.30;1.90;;;13.00;99.90;;;;;;4983514;28;20043;-77
2022/05/27 13:53:54;;;;;;;2.38;1.80;;;13.00;99.90;;;;;;4965695;28;20035;-77
2022/05/27 13:56:34;;;;;;;4.32;1.70;;;13.00;99.90;;;;;;4973194;28;20502;-76
2022/05/27 13:59:13;;;;;;;4.30;1.42;;;13.00;99.90;;;;;;4974403;28;20070;-76
2022/05/27 14:01:54;;;;;;;8.25;1.95;;;13.00;99.90;;;;;;4975091;28;20458;-76
2022/05/27 14:04:28;;;;;;;3.63;1.80;;;13.00;99.90;;;;;;4974761;28;20487;-77
2022/05/27 14:06:57;;;;;;;5.35;2.20;;;13.00;99.90;;;;;;4974269;28;20033;-76
2022/05/27 14:09:34;;;;;;;4.78;3.15;;;13.00;99.90;;;;;;4974379;28;20095;-76